Time;durP1;ratioP1;P1;durP2;ratioP2;P2;SDS_P1;SDS_P2;PMS_P1;PMS_P2;Temp;Humidity;BMP_temperature;BMP_pressure;BME280_temperature;BME280_humidity;BME280_pressure;Samples;Min_cycle;Max_cycle;Signal;HPM_P1;HPM_P2
2022/08/26 00:00:06;;;;;;;3.75;3.45;;;;;;;;;;4198938;28;20041;-61
2022/08/26 00:02:07;;;;;;;;;;;;;;;;;;4181666;28;20029;-61
2022/08/26 00:04:08;;;;;;;3.33;3.03;;;;;;;;;;4199430;28;19904;-60
2022/08/26 00:06:10;;;;;;;3.75;3.45;;;;;;;;;;4198911;28;20066;-61
2022/08/26 00:08:12;;;;;;;3.58;3.28;;;;;;;;;;4198746;28;20414;-62
2022/08/26 00:10:13;;;;;;;3.50;3.08;;;;;;;;;;4198409;28;20434;-60
2022/08/26 00:12:17;;;;;;;3.92;3.63;;;;;;;;;;4198861;28;20036;-61
2022/08/26 00:14:18;;;;;;;4.38;3.97;;;;;;;;;;4198562;28;20089;-61
2022/08/26 00:16:19;;;;;;;3.60;3.30;;;;;;;;;;4198426;28;20044;-61
2022/08/26 00:18:20;;;;;;;3.60;3.30;;;;;;;;;;4199393;28;20105;-61
2022/08/26 00:20:23;;;;;;;3.35;3.15;;;;;;;;;;4198626;28;20028;-59
2022/08/26 00:22:24;;;;;;;3.50;3.20;;;;;;;;;;4198479;28;20033;-61
2022/08/26 00:24:25;;;;;;;3.83;3.53;;;;;;;;;;4187718;28;20043;-60
2022/08/26 00:26:26;;;;;;;4.25;3.85;;;;;;;;;;4185056;28;20062;-62
2022/08/26 00:28:27;;;;;;;3.95;3.65;;;;;;;;;;4185509;28;20041;-61
2022/08/26 00:30:29;;;;;;;3.85;3.45;;;;;;;;;;4182432;28;20021;-61
2022/08/26 00:32:30;;;;;;;4.25;3.47;;;;;;;;;;4197181;28;20085;-61
2022/08/26 00:34:31;;;;;;;3.63;3.33;;;;;;;;;;4198782;28;20422;-61
2022/08/26 00:36:33;;;;;;;4.15;3.63;;;;;;;;;;4198423;28;20437;-61
2022/08/26 00:38:37;;;;;;;3.72;3.42;;;;;;;;;;4198516;28;20029;-61
2022/08/26 00:40:39;;;;;;;4.20;3.80;;;;;;;;;;4180270;28;20033;-61
2022/08/26 00:42:49;;;;;;;3.92;3.60;;;;;;;;;;4198692;28;20032;-61
2022/08/26 00:44:50;;;;;;;3.80;3.50;;;;;;;;;;4187155;28;20106;-61
2022/08/26 00:46:53;;;;;;;4.18;3.63;;;;;;;;;;4198579;28;20024;-61
2022/08/26 00:48:58;;;;;;;3.90;3.60;;;;;;;;;;4201863;28;20433;-60
2022/08/26 00:51:01;;;;;;;4.80;3.40;;;;;;;;;;4197867;28;20086;-61
2022/08/26 00:53:03;;;;;;;6.28;3.63;;;;;;;;;;4198239;28;20036;-60
2022/08/26 00:55:16;;;;;;;4.65;4.05;;;;;;;;;;4198221;28;20086;-61
2022/08/26 00:57:17;;;;;;;6.18;3.80;;;;;;;;;;4198154;28;20040;-61
2022/08/26 00:59:19;;;;;;;8.45;3.20;;;;;;;;;;4197697;28;20032;-61
2022/08/26 01:01:20;;;;;;;4.63;3.70;;;;;;;;;;4197389;28;20074;-61
2022/08/26 01:03:24;;;;;;;6.28;3.70;;;;;;;;;;4197672;28;20036;-60
2022/08/26 01:05:26;;;;;;;4.90;3.40;;;;;;;;;;4197963;28;20086;-61
2022/08/26 01:07:28;;;;;;;4.07;3.60;;;;;;;;;;4197927;28;20036;-61
2022/08/26 01:09:29;;;;;;;6.00;4.10;;;;;;;;;;4197583;28;20032;-61
2022/08/26 01:11:30;;;;;;;5.10;3.70;;;;;;;;;;4197393;28;20028;-61
2022/08/26 01:13:37;;;;;;;5.65;4.00;;;;;;;;;;4197768;28;20471;-61
2022/08/26 01:15:45;;;;;;;4.10;3.75;;;;;;;;;;4197333;28;20082;-60
2022/08/26 01:17:46;;;;;;;3.90;3.60;;;;;;;;;;4198259;28;20063;-60
2022/08/26 01:19:53;;;;;;;4.00;3.60;;;;;;;;;;4196081;28;20115;-60
2022/08/26 01:21:59;;;;;;;3.90;3.47;;;;;;;;;;4196987;28;20105;-61
2022/08/26 01:24:03;;;;;;;4.13;3.63;;;;;;;;;;4180855;28;20086;-61
2022/08/26 01:26:10;;;;;;;4.47;3.75;;;;;;;;;;4196782;28;20093;-61
2022/08/26 01:28:20;;;;;;;6.03;4.05;;;;;;;;;;4196175;28;20525;-62
2022/08/26 01:30:21;;;;;;;4.60;3.70;;;;;;;;;;4180591;28;20435;-61
2022/08/26 01:32:28;;;;;;;4.15;3.75;;;;;;;;;;4181731;28;20083;-61
2022/08/26 01:34:31;;;;;;;3.50;3.20;;;;;;;;;;4181145;28;20087;-62
2022/08/26 01:36:31;;;;;;;3.80;3.50;;;;;;;;;;4183009;28;20107;-61
2022/08/26 01:38:33;;;;;;;3.85;3.55;;;;;;;;;;4163470;28;20473;-65
2022/08/26 01:40:36;;;;;;;5.65;3.40;;;;;;;;;;4180449;28;20037;-62
2022/08/26 01:42:39;;;;;;;3.63;3.33;;;;;;;;;;4184906;28;20032;-62
2022/08/26 01:44:44;;;;;;;4.22;3.60;;;;;;;;;;4185060;28;20443;-62
2022/08/26 01:46:45;;;;;;;4.45;3.78;;;;;;;;;;4189244;28;20475;-62
2022/08/26 01:48:47;;;;;;;4.13;3.72;;;;;;;;;;4197889;28;20028;-62
2022/08/26 01:50:48;;;;;;;5.55;3.80;;;;;;;;;;4182256;28;20083;-62
2022/08/26 01:52:49;;;;;;;15.55;4.22;;;;;;;;;;4185275;28;20094;-62
2022/08/26 01:54:51;;;;;;;9.00;3.65;;;;;;;;;;4193104;28;20097;-62
2022/08/26 01:56:52;;;;;;;7.18;4.00;;;;;;;;;;4193304;28;20168;-63
2022/08/26 01:58:59;;;;;;;6.97;3.95;;;;;;;;;;4197042;28;20166;-64
2022/08/26 02:01:00;;;;;;;10.82;4.38;;;;;;;;;;4191781;28;20090;-63
2022/08/26 02:03:16;;;;;;;10.82;4.30;;;;;;;;;;4182016;28;20461;-61
2022/08/26 02:05:19;;;;;;;11.30;4.15;;;;;;;;;;4195392;28;20048;-63
2022/08/26 02:07:20;;;;;;;5.18;3.83;;;;;;;;;;4197655;28;20399;-61
2022/08/26 02:09:22;;;;;;;10.50;4.25;;;;;;;;;;4194901;28;20044;-63
2022/08/26 02:11:25;;;;;;;8.60;5.10;;;;;;;;;;4196255;28;20106;-61
2022/08/26 02:13:28;;;;;;;9.55;4.10;;;;;;;;;;4196973;28;20422;-61
2022/08/26 02:15:29;;;;;;;6.88;3.88;;;;;;;;;;4197041;28;20110;-64
2022/08/26 02:17:36;;;;;;;6.05;3.58;;;;;;;;;;4196480;28;20106;-61
2022/08/26 02:19:40;;;;;;;5.15;3.53;;;;;;;;;;4186554;28;20032;-62
2022/08/26 02:21:42;;;;;;;6.72;3.53;;;;;;;;;;4195715;28;20028;-61
2022/08/26 02:23:43;;;;;;;6.68;3.95;;;;;;;;;;4183947;28;20041;-61
2022/08/26 02:26:06;;;;;;;6.47;4.18;;;;;;;;;;4188605;28;20078;-62
2022/08/26 02:28:09;;;;;;;4.82;4.10;;;;;;;;;;4179420;28;20037;-61
2022/08/26 02:30:18;;;;;;;6.22;3.80;;;;;;;;;;4184279;28;20040;-61
2022/08/26 02:32:19;;;;;;;6.90;3.40;;;;;;;;;;4195609;28;20037;-61
2022/08/26 02:34:21;;;;;;;4.25;3.63;;;;;;;;;;4209134;28;20490;-64
2022/08/26 02:36:25;;;;;;;3.92;3.47;;;;;;;;;;4213202;28;20040;-61
2022/08/26 02:38:29;;;;;;;5.30;3.80;;;;;;;;;;4213261;28;20036;-61
2022/08/26 02:40:32;;;;;;;5.50;3.65;;;;;;;;;;4212822;28;20032;-61
2022/08/26 02:42:33;;;;;;;4.82;3.28;;;;;;;;;;4183187;28;20036;-61
2022/08/26 02:44:34;;;;;;;5.45;3.70;;;;;;;;;;4181873;28;20055;-61
2022/08/26 02:46:36;;;;;;;5.57;4.00;;;;;;;;;;4180484;28;20125;-62
2022/08/26 02:48:37;;;;;;;6.65;4.15;;;;;;;;;;4195317;28;20024;-62
2022/08/26 02:50:38;;;;;;;4.32;3.40;;;;;;;;;;4197174;28;20471;-62
2022/08/26 02:52:39;;;;;;;7.22;4.20;;;;;;;;;;4196513;28;20033;-63
2022/08/26 02:54:40;;;;;;;5.07;3.50;;;;;;;;;;4196474;28;20067;-60
2022/08/26 02:56:41;;;;;;;4.05;3.65;;;;;;;;;;4200808;28;20089;-61
2022/08/26 02:58:42;;;;;;;4.05;3.65;;;;;;;;;;4204597;28;20033;-62
2022/08/26 03:00:46;;;;;;;3.65;3.35;;;;;;;;;;4190137;28;20076;-62
2022/08/26 03:02:50;;;;;;;4.13;3.72;;;;;;;;;;4180264;28;20553;-62
2022/08/26 03:04:51;;;;;;;4.97;3.92;;;;;;;;;;4179847;28;20427;-62
2022/08/26 03:06:52;;;;;;;3.78;3.30;;;;;;;;;;4180232;28;20108;-61
2022/08/26 03:08:54;;;;;;;4.20;3.80;;;;;;;;;;4180322;28;20041;-62
2022/08/26 03:10:55;;;;;;;4.20;3.55;;;;;;;;;;4183564;28;20442;-62
2022/08/26 03:12:56;;;;;;;4.35;3.88;;;;;;;;;;4187719;28;20032;-63
2022/08/26 03:14:57;;;;;;;3.70;3.40;;;;;;;;;;4187572;28;20072;-63
2022/08/26 03:16:59;;;;;;;4.20;3.78;;;;;;;;;;4191270;28;20047;-62
2022/08/26 03:19:01;;;;;;;3.60;3.30;;;;;;;;;;4195831;28;20110;-62
2022/08/26 03:21:09;;;;;;;4.45;3.60;;;;;;;;;;4196231;28;20553;-62
2022/08/26 03:23:11;;;;;;;6.20;3.53;;;;;;;;;;4191742;28;20055;-63
2022/08/26 03:25:13;;;;;;;4.53;3.50;;;;;;;;;;4183394;28;20028;-62
2022/08/26 03:27:14;;;;;;;5.20;3.40;;;;;;;;;;4185755;28;20025;-62
2022/08/26 03:31:34;;;;;;;5.45;3.90;;;;;;;;;;4190713;28;20036;-63
2022/08/26 03:33:35;;;;;;;4.05;3.65;;;;;;;;;;4199231;28;20032;-62
2022/08/26 03:35:40;;;;;;;4.28;3.85;;;;;;;;;;4186844;28;20087;-63
2022/08/26 03:37:41;;;;;;;3.67;3.38;;;;;;;;;;4180247;28;20477;-61
2022/08/26 03:39:42;;;;;;;3.90;3.50;;;;;;;;;;4198352;28;20045;-61
2022/08/26 03:41:43;;;;;;;5.82;3.70;;;;;;;;;;4199230;28;20123;-62
2022/08/26 03:43:46;;;;;;;4.18;3.78;;;;;;;;;;4199425;28;20442;-62
2022/08/26 03:45:47;;;;;;;4.35;3.63;;;;;;;;;;4199141;28;20472;-62
2022/08/26 03:47:48;;;;;;;4.22;3.83;;;;;;;;;;4199403;28;20037;-63
2022/08/26 03:49:49;;;;;;;4.32;3.50;;;;;;;;;;4199926;28;20032;-62
2022/08/26 03:51:52;;;;;;;4.18;3.70;;;;;;;;;;4192846;28;20029;-62
2022/08/26 03:53:56;;;;;;;4.60;4.15;;;;;;;;;;4182206;28;20033;-62
2022/08/26 03:55:57;;;;;;;3.90;3.25;;;;;;;;;;4183237;28;20025;-62
2022/08/26 03:57:59;;;;;;;3.70;3.40;;;;;;;;;;4182684;28;20044;-63
2022/08/26 04:00:00;;;;;;;4.60;3.83;;;;;;;;;;4182417;28;20079;-62
2022/08/26 04:02:01;;;;;;;3.85;3.47;;;;;;;;;;4181669;28;20033;-62
2022/08/26 04:04:02;;;;;;;4.00;3.60;;;;;;;;;;4183243;28;20115;-62
2022/08/26 04:06:03;;;;;;;4.03;3.70;;;;;;;;;;4182653;28;20078;-62
2022/08/26 04:08:04;;;;;;;3.65;3.35;;;;;;;;;;4182571;28;20396;-62
2022/08/26 04:10:06;;;;;;;4.00;3.60;;;;;;;;;;4182060;28;20041;-62
2022/08/26 04:12:08;;;;;;;4.55;4.15;;;;;;;;;;4182065;28;20090;-62
2022/08/26 04:14:14;;;;;;;4.20;3.72;;;;;;;;;;4182254;28;20435;-62
2022/08/26 04:16:16;;;;;;;3.95;3.65;;;;;;;;;;4182025;28;20465;-63
2022/08/26 04:18:19;;;;;;;4.53;3.80;;;;;;;;;;4182170;28;20037;-62
2022/08/26 04:20:20;;;;;;;4.55;4.15;;;;;;;;;;4189290;28;20032;-62
2022/08/26 04:22:21;;;;;;;4.72;3.60;;;;;;;;;;4198690;28;20063;-62
2022/08/26 04:24:23;;;;;;;4.80;3.70;;;;;;;;;;4199448;28;20024;-62
2022/08/26 04:26:24;;;;;;;3.75;3.45;;;;;;;;;;4187552;28;20029;-62
2022/08/26 04:28:25;;;;;;;3.97;3.67;;;;;;;;;;4181646;28;20099;-62
2022/08/26 04:30:27;;;;;;;4.47;3.53;;;;;;;;;;4191697;28;20467;-62
2022/08/26 04:32:30;;;;;;;3.72;3.42;;;;;;;;;;4187689;28;20032;-62
2022/08/26 04:34:32;;;;;;;3.90;3.53;;;;;;;;;;4200644;28;20025;-62
2022/08/26 04:36:33;;;;;;;4.30;3.90;;;;;;;;;;4184940;28;20527;-62
2022/08/26 04:38:34;;;;;;;3.95;3.53;;;;;;;;;;4184734;28;20029;-63
2022/08/26 04:40:35;;;;;;;4.75;3.97;;;;;;;;;;4190292;28;20036;-62
2022/08/26 04:42:36;;;;;;;4.03;3.63;;;;;;;;;;4184114;28;20472;-62
2022/08/26 04:44:37;;;;;;;4.40;4.00;;;;;;;;;;4189186;28;20325;-62
2022/08/26 04:46:38;;;;;;;3.95;3.50;;;;;;;;;;4198154;28;20537;-62
2022/08/26 04:48:39;;;;;;;3.88;3.47;;;;;;;;;;4191049;28;20037;-62
2022/08/26 04:50:41;;;;;;;4.20;3.80;;;;;;;;;;4181619;28;20094;-62
2022/08/26 04:52:41;;;;;;;3.83;3.53;;;;;;;;;;4181860;28;20033;-61
2022/08/26 04:54:42;;;;;;;4.03;3.60;;;;;;;;;;4182428;28;20079;-63
2022/08/26 04:56:46;;;;;;;3.88;3.58;;;;;;;;;;4182480;28;20380;-64
2022/08/26 04:58:48;;;;;;;4.32;3.92;;;;;;;;;;4181531;28;20029;-62
2022/08/26 05:00:52;;;;;;;4.28;3.88;;;;;;;;;;4189168;28;20599;-62
2022/08/26 05:02:59;;;;;;;4.55;4.15;;;;;;;;;;4181635;28;20029;-63
2022/08/26 05:05:00;;;;;;;4.20;3.90;;;;;;;;;;4182144;28;20079;-63
2022/08/26 05:07:01;;;;;;;4.57;3.75;;;;;;;;;;4181172;28;20419;-60
2022/08/26 05:09:02;;;;;;;4.25;3.85;;;;;;;;;;4195482;28;20098;-61
2022/08/26 05:11:03;;;;;;;4.65;4.20;;;;;;;;;;4188145;28;20029;-62
2022/08/26 05:13:04;;;;;;;4.72;4.32;;;;;;;;;;4182051;28;20033;-61
2022/08/26 05:15:05;;;;;;;4.43;4.03;;;;;;;;;;4189171;28;20036;-62
2022/08/26 05:17:07;;;;;;;5.13;4.20;;;;;;;;;;4187479;28;20041;-63
2022/08/26 05:19:08;;;;;;;4.40;4.00;;;;;;;;;;4180486;28;20435;-64
2022/08/26 05:21:29;;;;;;;4.22;3.83;;;;;;;;;;4196114;28;20044;-62
2022/08/26 05:23:33;;;;;;;4.75;3.85;;;;;;;;;;4197210;28;20032;-62
2022/08/26 05:25:39;;;;;;;4.63;4.10;;;;;;;;;;4195666;28;20094;-62
2022/08/26 05:27:40;;;;;;;4.50;4.07;;;;;;;;;;4196136;28;20451;-63
2022/08/26 05:29:41;;;;;;;6.25;4.38;;;;;;;;;;4187922;28;20029;-62
2022/08/26 05:31:42;;;;;;;5.38;4.40;;;;;;;;;;4183756;28;20082;-63
2022/08/26 05:33:43;;;;;;;4.18;3.78;;;;;;;;;;4197627;28;20044;-62
2022/08/26 05:35:44;;;;;;;4.53;4.13;;;;;;;;;;4196872;28;20070;-62
2022/08/26 05:37:45;;;;;;;4.35;3.95;;;;;;;;;;4194211;28;20036;-63
2022/08/26 05:39:48;;;;;;;4.10;3.70;;;;;;;;;;4196170;28;20431;-62
2022/08/26 05:41:49;;;;;;;4.20;3.80;;;;;;;;;;4182911;28;20091;-62
2022/08/26 05:43:51;;;;;;;4.53;4.13;;;;;;;;;;4194067;28;20479;-62
2022/08/26 05:45:57;;;;;;;4.15;3.83;;;;;;;;;;4197277;28;20086;-63
2022/08/26 05:47:58;;;;;;;4.68;4.28;;;;;;;;;;4195281;28;20373;-63
2022/08/26 05:49:59;;;;;;;4.45;4.05;;;;;;;;;;4197643;28;20074;-62
2022/08/26 05:52:03;;;;;;;4.13;3.83;;;;;;;;;;4195511;28;20094;-62
2022/08/26 05:54:07;;;;;;;4.75;4.35;;;;;;;;;;4195801;28;20028;-62
2022/08/26 05:56:09;;;;;;;4.45;4.15;;;;;;;;;;4195666;28;20483;-62
2022/08/26 05:58:10;;;;;;;4.50;4.10;;;;;;;;;;4195714;28;20032;-63
2022/08/26 06:00:14;;;;;;;4.38;3.97;;;;;;;;;;4191482;28;20033;-62
2022/08/26 06:02:15;;;;;;;4.50;4.10;;;;;;;;;;4183555;28;20545;-63
2022/08/26 06:04:16;;;;;;;4.82;4.43;;;;;;;;;;4180679;28;20102;-63
2022/08/26 06:06:18;;;;;;;4.40;4.03;;;;;;;;;;4195060;28;20122;-62
2022/08/26 06:08:20;;;;;;;4.45;4.05;;;;;;;;;;4193749;28;20036;-63
2022/08/26 06:10:20;;;;;;;4.15;3.75;;;;;;;;;;4181085;28;20083;-62
2022/08/26 06:12:21;;;;;;;4.60;4.20;;;;;;;;;;4180636;28;20052;-62
2022/08/26 06:14:22;;;;;;;4.65;4.25;;;;;;;;;;4196382;28;20039;-62
2022/08/26 06:16:23;;;;;;;4.45;4.05;;;;;;;;;;4196734;28;20049;-62
2022/08/26 06:18:31;;;;;;;5.10;4.60;;;;;;;;;;4197706;28;20431;-62
2022/08/26 06:20:32;;;;;;;4.78;4.38;;;;;;;;;;4194962;28;20041;-62
2022/08/26 06:27:12;;;;;;;5.15;4.30;;;;;;;;;;4198425;28;20033;-63
2022/08/26 06:29:13;;;;;;;5.13;4.72;;;;;;;;;;4196820;28;20036;-62
2022/08/26 06:31:14;;;;;;;4.25;3.95;;;;;;;;;;4196561;28;20102;-63
2022/08/26 06:33:15;;;;;;;4.63;4.18;;;;;;;;;;4197013;28;20562;-62
2022/08/26 06:35:16;;;;;;;4.95;4.55;;;;;;;;;;4195363;28;20112;-62
2022/08/26 06:37:17;;;;;;;4.90;4.50;;;;;;;;;;4196992;28;20127;-63
2022/08/26 06:39:18;;;;;;;4.70;4.30;;;;;;;;;;4196644;28;20522;-62
2022/08/26 06:41:19;;;;;;;4.72;4.15;;;;;;;;;;4195961;28;20098;-62
2022/08/26 06:43:22;;;;;;;4.65;4.25;;;;;;;;;;4196750;28;20110;-62
2022/08/26 06:45:23;;;;;;;4.80;4.40;;;;;;;;;;4196868;28;20066;-62
2022/08/26 06:47:24;;;;;;;4.30;4.00;;;;;;;;;;4197062;28;20108;-62
2022/08/26 06:49:25;;;;;;;4.38;3.97;;;;;;;;;;4196780;28;20040;-62
2022/08/26 06:51:27;;;;;;;5.03;4.53;;;;;;;;;;4196713;28;20033;-62
2022/08/26 06:53:28;;;;;;;4.40;4.00;;;;;;;;;;4196768;28;20029;-62
2022/08/26 06:55:29;;;;;;;4.65;4.25;;;;;;;;;;4196591;28;20082;-62
2022/08/26 06:57:31;;;;;;;4.47;4.07;;;;;;;;;;4196469;28;20048;-62
2022/08/26 06:59:32;;;;;;;4.47;4.18;;;;;;;;;;4181257;28;20037;-62
2022/08/26 07:01:35;;;;;;;4.25;3.92;;;;;;;;;;4176019;28;20061;-62
2022/08/26 07:03:36;;;;;;;4.60;4.20;;;;;;;;;;4188372;28;20089;-62
2022/08/26 07:05:37;;;;;;;5.85;4.60;;;;;;;;;;4186680;28;20045;-62
2022/08/26 07:07:40;;;;;;;5.03;4.60;;;;;;;;;;4192154;28;20406;-62
2022/08/26 07:09:45;;;;;;;4.30;3.90;;;;;;;;;;4186870;28;20032;-61
2022/08/26 07:11:46;;;;;;;4.03;3.65;;;;;;;;;;4197319;28;20071;-62
2022/08/26 07:13:49;;;;;;;4.40;4.00;;;;;;;;;;4199734;28;20036;-62
2022/08/26 07:15:50;;;;;;;4.30;4.00;;;;;;;;;;4191143;28;20040;-63
2022/08/26 07:17:50;;;;;;;5.05;4.65;;;;;;;;;;4199764;28;20104;-62
2022/08/26 07:19:54;;;;;;;4.55;4.15;;;;;;;;;;4199972;28;20024;-62
2022/08/26 07:21:55;;;;;;;5.28;4.82;;;;;;;;;;4199569;28;20094;-62
2022/08/26 07:23:56;;;;;;;4.45;4.10;;;;;;;;;;4199401;28;20044;-63
2022/08/26 07:25:56;;;;;;;6.03;4.65;;;;;;;;;;4200386;28;20020;-63
2022/08/26 07:27:57;;;;;;;4.85;4.43;;;;;;;;;;4184602;28;20419;-62
2022/08/26 07:29:58;;;;;;;4.10;3.80;;;;;;;;;;4182958;28;20392;-62
2022/08/26 07:31:59;;;;;;;4.75;4.35;;;;;;;;;;4182938;28;20033;-63
2022/08/26 07:34:00;;;;;;;5.10;4.60;;;;;;;;;;4183369;28;20025;-63
2022/08/26 07:36:01;;;;;;;4.63;4.22;;;;;;;;;;4165807;28;20045;-63
2022/08/26 07:38:02;;;;;;;4.63;4.22;;;;;;;;;;4183074;28;20040;-62
2022/08/26 07:40:03;;;;;;;4.80;4.03;;;;;;;;;;4182983;28;20040;-62
2022/08/26 07:42:05;;;;;;;5.18;4.15;;;;;;;;;;4184369;28;20044;-63
2022/08/26 07:44:07;;;;;;;4.63;4.22;;;;;;;;;;4199301;28;20481;-62
2022/08/26 07:46:08;;;;;;;4.97;4.50;;;;;;;;;;4199087;28;20117;-63
2022/08/26 07:48:09;;;;;;;4.88;4.47;;;;;;;;;;4199571;28;20041;-62
2022/08/26 07:50:10;;;;;;;5.20;4.80;;;;;;;;;;4184398;28;20056;-63
2022/08/26 07:52:11;;;;;;;4.55;4.15;;;;;;;;;;4182633;28;20427;-62
2022/08/26 07:54:12;;;;;;;4.35;3.97;;;;;;;;;;4182902;28;20037;-63
2022/08/26 07:56:12;;;;;;;4.53;4.10;;;;;;;;;;4182516;28;20379;-62
2022/08/26 07:58:13;;;;;;;4.60;4.20;;;;;;;;;;4182522;28;20056;-63
2022/08/26 08:00:15;;;;;;;4.95;4.50;;;;;;;;;;4182428;28;20112;-62
2022/08/26 08:02:16;;;;;;;4.70;4.30;;;;;;;;;;4182441;28;20033;-63
2022/08/26 08:04:17;;;;;;;4.80;4.40;;;;;;;;;;4195096;28;20040;-62
2022/08/26 08:06:21;;;;;;;4.60;4.20;;;;;;;;;;4197145;28;20075;-63
2022/08/26 08:08:22;;;;;;;4.82;4.43;;;;;;;;;;4182253;28;20454;-62
2022/08/26 08:10:24;;;;;;;5.75;4.60;;;;;;;;;;4181878;28;20032;-62
2022/08/26 08:12:25;;;;;;;4.45;4.05;;;;;;;;;;4182519;28;20037;-62
2022/08/26 08:14:26;;;;;;;4.72;4.32;;;;;;;;;;4181599;28;20033;-62
2022/08/26 08:16:27;;;;;;;4.57;4.18;;;;;;;;;;4182059;28;20051;-62
2022/08/26 08:18:28;;;;;;;4.50;4.10;;;;;;;;;;4182096;28;20045;-62
2022/08/26 08:20:32;;;;;;;5.35;4.85;;;;;;;;;;4182127;28;20488;-62
2022/08/26 08:22:35;;;;;;;4.80;4.28;;;;;;;;;;4182117;28;20106;-62
2022/08/26 08:24:36;;;;;;;5.10;4.60;;;;;;;;;;4182780;28;20041;-62
2022/08/26 08:26:37;;;;;;;4.40;4.00;;;;;;;;;;4182021;28;20033;-62
2022/08/26 08:28:38;;;;;;;5.15;4.68;;;;;;;;;;4181857;28;20033;-63
2022/08/26 08:30:42;;;;;;;4.80;4.40;;;;;;;;;;4182467;28;20016;-63
2022/08/26 08:32:43;;;;;;;4.80;4.40;;;;;;;;;;4182014;28;20110;-62
2022/08/26 08:34:44;;;;;;;4.85;4.45;;;;;;;;;;4184107;28;20037;-62
2022/08/26 08:36:47;;;;;;;4.88;4.47;;;;;;;;;;4197814;28;20043;-62
2022/08/26 08:38:48;;;;;;;4.75;4.35;;;;;;;;;;4198272;28;20037;-62
2022/08/26 08:40:49;;;;;;;4.88;4.47;;;;;;;;;;4197536;28;20502;-62
2022/08/26 08:42:56;;;;;;;4.97;4.57;;;;;;;;;;4198249;28;20028;-62
2022/08/26 08:45:04;;;;;;;4.65;4.25;;;;;;;;;;4198792;28;20066;-62
2022/08/26 08:47:19;;;;;;;4.95;4.45;;;;;;;;;;4199128;28;20363;-62
2022/08/26 08:49:20;;;;;;;5.03;4.60;;;;;;;;;;4198218;28;20534;-64
2022/08/26 08:51:31;;;;;;;4.93;4.32;;;;;;;;;;4197968;28;20036;-61
2022/08/26 08:53:37;;;;;;;4.75;4.35;;;;;;;;;;4198936;28;20468;-62
2022/08/26 08:55:53;;;;;;;5.13;4.72;;;;;;;;;;4197965;28;20098;-62
2022/08/26 08:58:08;;;;;;;5.03;4.50;;;;;;;;;;4197535;28;20102;-62
2022/08/26 09:00:17;;;;;;;5.10;4.70;;;;;;;;;;4186876;28;20094;-63
2022/08/26 09:02:24;;;;;;;4.88;4.38;;;;;;;;;;4198020;28;20541;-62
2022/08/26 09:04:51;;;;;;;4.65;4.25;;;;;;;;;;4197083;28;20459;-62
2022/08/26 09:06:54;;;;;;;4.45;4.05;;;;;;;;;;4188914;28;20086;-63
2022/08/26 09:08:56;;;;;;;4.90;4.50;;;;;;;;;;4195742;28;20041;-62
2022/08/26 09:11:00;;;;;;;4.75;4.35;;;;;;;;;;4186218;28;20078;-63
2022/08/26 09:13:04;;;;;;;4.78;4.38;;;;;;;;;;4195347;28;20542;-62
2022/08/26 09:15:10;;;;;;;4.70;4.30;;;;;;;;;;4181259;28;20074;-62
2022/08/26 09:17:46;;;;;;;4.30;3.90;;;;;;;;;;4181183;28;20049;-62
2022/08/26 09:19:50;;;;;;;5.13;4.72;;;;;;;;;;4101538;28;20089;-63
2022/08/26 09:21:54;;;;;;;4.65;4.25;;;;;;;;;;4149938;28;20033;-63
2022/08/26 09:23:55;;;;;;;4.65;4.25;;;;;;;;;;4181015;28;20473;-63
2022/08/26 09:26:01;;;;;;;4.50;4.10;;;;;;;;;;4191533;28;20468;-62
2022/08/26 09:28:09;;;;;;;4.50;4.10;;;;;;;;;;4188036;28;20025;-62
2022/08/26 09:32:34;;;;;;;4.25;3.85;;;;;;;;;;4169757;28;20041;-62
2022/08/26 09:34:36;;;;;;;6.00;4.07;;;;;;;;;;4189330;28;20106;-63
2022/08/26 09:36:42;;;;;;;4.78;4.38;;;;;;;;;;4184359;28;20480;-62
2022/08/26 09:38:43;;;;;;;4.13;3.80;;;;;;;;;;4197254;28;20048;-62
2022/08/26 09:40:53;;;;;;;4.70;4.30;;;;;;;;;;4196601;28;20195;-62
2022/08/26 09:43:24;;;;;;;4.10;3.80;;;;;;;;;;4180271;28;20049;-62
2022/08/26 09:45:27;;;;;;;4.65;4.25;;;;;;;;;;4164048;28;20094;-62
2022/08/26 09:47:30;;;;;;;4.70;4.30;;;;;;;;;;4184650;28;20095;-62
2022/08/26 09:49:33;;;;;;;4.47;4.18;;;;;;;;;;4164495;28;20033;-62
2022/08/26 09:51:34;;;;;;;4.60;4.20;;;;;;;;;;4180571;28;20041;-63
2022/08/26 09:53:48;;;;;;;4.60;4.20;;;;;;;;;;4191088;28;20040;-62
2022/08/26 09:55:50;;;;;;;4.95;3.90;;;;;;;;;;4197239;28;20434;-62
2022/08/26 09:57:52;;;;;;;4.53;4.13;;;;;;;;;;4197186;28;20464;-64
2022/08/26 09:59:53;;;;;;;4.47;4.07;;;;;;;;;;4197424;28;20033;-63
2022/08/26 10:01:57;;;;;;;4.63;4.22;;;;;;;;;;4196887;28;20510;-62
2022/08/26 10:04:04;;;;;;;5.20;4.80;;;;;;;;;;4197121;28;20090;-62
2022/08/26 10:06:17;;;;;;;5.07;4.68;;;;;;;;;;4192354;28;20041;-62
2022/08/26 10:08:23;;;;;;;4.10;3.80;;;;;;;;;;4197305;28;20064;-63
2022/08/26 10:10:25;;;;;;;4.38;3.97;;;;;;;;;;4196640;28;20032;-62
2022/08/26 10:12:26;;;;;;;4.90;4.50;;;;;;;;;;4197040;28;20036;-62
2022/08/26 10:14:33;;;;;;;4.82;4.43;;;;;;;;;;4197336;28;20052;-62
2022/08/26 10:16:42;;;;;;;4.80;4.30;;;;;;;;;;4197608;28;20040;-62
2022/08/26 10:19:06;;;;;;;4.80;4.40;;;;;;;;;;4197015;28;20044;-63
2022/08/26 10:21:25;;;;;;;4.65;4.13;;;;;;;;;;4183383;28;20094;-62
2022/08/26 10:23:28;;;;;;;4.47;4.07;;;;;;;;;;4195941;28;20382;-62
2022/08/26 10:25:33;;;;;;;4.40;4.00;;;;;;;;;;4197018;28;20032;-62
2022/08/26 10:27:49;;;;;;;4.57;4.07;;;;;;;;;;4196812;28;20513;-62
2022/08/26 10:29:51;;;;;;;4.82;4.43;;;;;;;;;;4197005;28;20097;-63
2022/08/26 10:31:54;;;;;;;4.57;4.18;;;;;;;;;;4196477;28;20490;-63
2022/08/26 10:33:56;;;;;;;4.65;4.18;;;;;;;;;;4196854;28;20036;-63
2022/08/26 10:35:58;;;;;;;5.30;4.35;;;;;;;;;;4196273;28;20533;-62
2022/08/26 10:38:02;;;;;;;4.70;4.28;;;;;;;;;;4196411;28;20394;-62
2022/08/26 10:40:12;;;;;;;4.10;3.80;;;;;;;;;;4195804;28;20041;-62
2022/08/26 10:42:36;;;;;;;4.40;4.00;;;;;;;;;;4186900;28;20037;-63
2022/08/26 10:44:38;;;;;;;6.00;4.53;;;;;;;;;;4180223;28;20029;-62
2022/08/26 10:46:56;;;;;;;5.68;4.40;;;;;;;;;;4181016;28;20029;-62
2022/08/26 10:48:57;;;;;;;4.82;4.40;;;;;;;;;;4179920;28;20037;-62
2022/08/26 10:51:00;;;;;;;4.22;3.92;;;;;;;;;;4185055;28;20031;-62
2022/08/26 10:53:01;;;;;;;4.65;4.25;;;;;;;;;;4196856;28;20063;-62
2022/08/26 10:55:11;;;;;;;4.20;3.90;;;;;;;;;;4189367;28;20040;-61
2022/08/26 10:57:20;;;;;;;5.82;4.07;;;;;;;;;;4182683;28;20075;-62
2022/08/26 10:59:27;;;;;;;4.60;4.20;;;;;;;;;;4180290;28;20079;-62
2022/08/26 11:01:41;;;;;;;4.78;4.38;;;;;;;;;;4193516;28;20032;-63
2022/08/26 11:03:42;;;;;;;4.40;4.00;;;;;;;;;;4183232;28;20033;-62
2022/08/26 11:05:43;;;;;;;5.00;4.60;;;;;;;;;;4180238;28;20044;-62
2022/08/26 11:07:51;;;;;;;4.90;4.50;;;;;;;;;;4180320;28;20036;-62
2022/08/26 11:09:52;;;;;;;4.53;4.13;;;;;;;;;;4194622;28;20086;-62
2022/08/26 11:11:53;;;;;;;5.18;4.68;;;;;;;;;;4196104;28;20036;-62
2022/08/26 11:13:57;;;;;;;4.78;4.38;;;;;;;;;;4181998;28;20083;-63
2022/08/26 11:15:58;;;;;;;4.55;4.15;;;;;;;;;;4180265;28;20029;-63
2022/08/26 11:18:22;;;;;;;5.15;4.65;;;;;;;;;;4179304;28;20118;-63
2022/08/26 11:20:31;;;;;;;4.43;4.03;;;;;;;;;;4178377;28;20029;-63
2022/08/26 11:22:36;;;;;;;4.45;4.05;;;;;;;;;;4195659;28;20024;-63
2022/08/26 11:24:37;;;;;;;;;;;;;;;;;;4196906;28;20084;-63
2022/08/26 11:26:40;;;;;;;4.50;4.10;;;;;;;;;;4194070;28;19948;-63
2022/08/26 11:28:49;;;;;;;4.93;4.53;;;;;;;;;;4180174;28;20063;-62
2022/08/26 11:30:50;;;;;;;5.20;4.70;;;;;;;;;;4185923;28;20029;-62
2022/08/26 11:32:53;;;;;;;4.85;4.40;;;;;;;;;;4184147;28;20032;-62
2022/08/26 11:34:58;;;;;;;4.55;4.15;;;;;;;;;;4182760;28;20040;-62
2022/08/26 11:37:00;;;;;;;4.88;4.47;;;;;;;;;;4189096;28;20415;-62
2022/08/26 11:39:03;;;;;;;4.82;4.38;;;;;;;;;;4183870;28;20049;-62
2022/08/26 11:41:07;;;;;;;4.85;4.45;;;;;;;;;;4180905;28;20013;-63
2022/08/26 11:43:13;;;;;;;4.30;4.00;;;;;;;;;;4182959;28;20548;-62
2022/08/26 11:45:32;;;;;;;4.47;4.07;;;;;;;;;;4186662;28;20036;-62
2022/08/26 11:47:33;;;;;;;4.72;4.32;;;;;;;;;;4192232;28;20480;-62
2022/08/26 11:49:36;;;;;;;4.47;4.07;;;;;;;;;;4191874;28;20047;-62
2022/08/26 11:51:40;;;;;;;4.35;3.95;;;;;;;;;;4198698;28;20032;-62
2022/08/26 11:53:43;;;;;;;4.15;3.75;;;;;;;;;;4201523;28;20055;-62
2022/08/26 11:55:45;;;;;;;4.72;4.32;;;;;;;;;;4195638;28;20091;-62
2022/08/26 11:57:50;;;;;;;4.93;4.50;;;;;;;;;;4182653;28;20029;-62
2022/08/26 11:59:55;;;;;;;4.50;4.10;;;;;;;;;;4188450;28;20037;-62
2022/08/26 12:01:59;;;;;;;4.75;4.35;;;;;;;;;;4195730;28;20434;-62
2022/08/26 12:04:01;;;;;;;5.40;4.65;;;;;;;;;;4192323;28;20079;-63
2022/08/26 12:06:09;;;;;;;7.85;4.50;;;;;;;;;;4193634;28;20037;-67
2022/08/26 12:08:12;;;;;;;5.28;4.15;;;;;;;;;;4197275;28;20548;-62
2022/08/26 12:10:28;;;;;;;12.20;4.25;;;;;;;;;;4198569;28;20066;-63
2022/08/26 12:12:34;;;;;;;10.40;4.68;;;;;;;;;;4198742;28;20094;-61
2022/08/26 12:14:35;;;;;;;8.00;3.88;;;;;;;;;;4198718;28;20033;-62
2022/08/26 12:16:37;;;;;;;7.35;4.00;;;;;;;;;;4198664;28;20044;-63
2022/08/26 12:18:38;;;;;;;6.78;3.75;;;;;;;;;;4192545;28;20118;-63
2022/08/26 12:20:52;;;;;;;10.90;4.05;;;;;;;;;;4183838;28;20032;-62
2022/08/26 12:22:57;;;;;;;10.65;4.13;;;;;;;;;;4183894;28;20040;-62
2022/08/26 12:25:00;;;;;;;6.70;4.50;;;;;;;;;;4189194;28;20041;-62
2022/08/26 12:27:10;;;;;;;6.25;4.15;;;;;;;;;;4188110;28;20028;-62
2022/08/26 12:29:24;;;;;;;5.78;3.72;;;;;;;;;;4182303;28;20025;-62